Bellingham International Airport Bellingham US
ICAO: KBLI
IATA: BLI
Category: Medium
Scheduled Services: Yes

Elevation: 170 ft
TransAlt. 18000 ft.

Airport Communications:
VICTORIA APP/DEP:132.7
ATIS:134.45
CTAF:124.9
GND:127.4
SEATTLE RDO:122.15
TWR:124.9
UNICOM:122.95

KBLI Zoom In..

If you have problems with the map follow the link
https://www.worldairports.se/pages/airport.php?
ICAO=KBLI

Runways:

(A) RW 16 length 6701 ft width 150 ft
ILS 108.50 / hdg 160

(B) RW 34 length 6701 ft width 150 ft
---- / hdg 340

Location; KBLI
Day. 14 / Time. 21.53 Zulu
* Altimeter: 29.39
* Temperature: 12° c. 53.6°f.
* Wind from: 170° Speed 09 kn.
Dewpoint: 02° c.
Visibility: 10 Statute Miles.
Clouds: Clear (automated report).

KBLI 142153Z 17009KT 10SM CLR 12/02 A2939 RMK AO2 SLP958 T01170017


Wind From 170°
Speed 09 kn.

 
 
jpsmedia.com for Web Design worldairports.se 2018   terms of use